Time;durP1;ratioP1;P1;durP2;ratioP2;P2;SDS_P1;SDS_P2;PMS_P1;PMS_P2;Temp;Humidity;BMP_temperature;BMP_pressure;BME280_temperature;BME280_humidity;BME280_pressure;Samples;Min_cycle;Max_cycle;Signal;HPM_P1;HPM_P2
2021/07/19 00:01:57;;;;;;;;;;;20.30;83.60;;;20.09;76.08;101147.88;4990229;28;19965;-90
2021/07/19 00:04:24;;;;;;;;;;;20.30;83.50;;;20.02;76.41;101147.13;4989769;28;19980;-89
2021/07/19 00:06:51;;;;;;;;;;;20.30;83.70;;;20.00;76.34;101154.78;4989470;28;19933;-90
2021/07/19 00:09:19;;;;;;;;;;;20.30;83.50;;;20.02;76.17;101154.56;4991427;28;19933;-89
2021/07/19 00:11:46;;;;;;;;;;;20.30;83.40;;;19.95;76.58;101154.63;4991741;28;19965;-90
2021/07/19 00:14:13;;;;;;;;;;;20.20;83.70;;;19.92;76.57;101155.94;4991490;28;19969;-89
2021/07/19 00:16:40;;;;;;;;;;;20.20;83.70;;;19.91;76.31;101151.50;4990540;28;19934;-89
2021/07/19 00:19:08;;;;;;;;;;;20.20;83.30;;;19.94;76.04;101143.84;4990143;28;19969;-89
2021/07/19 00:21:35;;;;;;;;;;;20.20;83.50;;;19.88;76.43;101151.13;4989768;28;19929;-89
2021/07/19 00:24:02;;;;;;;;;;;20.10;83.80;;;19.89;75.67;101148.13;4991130;28;19930;-89
2021/07/19 00:26:30;;;;;;;;;;;20.10;83.30;;;19.89;75.58;101142.59;4988976;28;19929;-89
2021/07/19 00:28:57;;;;;;;;;;;20.10;83.10;;;19.83;75.80;101140.75;4989737;28;19926;-89
2021/07/19 00:31:24;;;;;;;;;;;20.10;83.40;;;19.83;75.17;101137.16;4989549;28;20686;-91
2021/07/19 00:33:53;;;;;;;;;;;20.10;81.80;;;19.77;74.54;101133.41;4989726;28;19936;-90
2021/07/19 00:36:22;;;;;;;;;;;20.00;82.40;;;19.74;75.37;101139.38;4988882;28;19960;-89
2021/07/19 00:38:51;;;;;;;;;;;20.00;83.00;;;19.63;74.97;101137.34;5005837;28;19976;-89
2021/07/19 00:41:19;;;;;;;;;;;20.00;82.70;;;19.65;73.86;101132.47;4989370;28;20450;-89
2021/07/19 00:43:46;;;;;;;;;;;19.90;81.30;;;19.69;73.60;101131.75;4989253;28;20016;-88
2021/07/19 00:46:13;;;;;;;;;;;19.90;81.50;;;19.67;72.83;101122.03;4988881;28;20394;-88
2021/07/19 00:48:42;;;;;;;;;;;19.90;81.30;;;19.67;72.98;101122.03;4989389;28;19977;-89
2021/07/19 00:51:10;;;;;;;;;;;19.90;81.10;;;19.64;72.64;101128.84;5005338;28;20445;-89
2021/07/19 00:53:39;;;;;;;;;;;19.90;80.90;;;19.66;72.43;101128.59;4990735;28;20093;-90
2021/07/19 00:56:10;;;;;;;;;;;19.80;80.00;;;19.66;72.09;101132.22;4988617;28;20021;-90
2021/07/19 00:58:39;;;;;;;;;;;19.80;80.60;;;19.54;73.03;101125.78;4989113;28;20386;-88
2021/07/19 01:01:10;;;;;;;;;;;19.80;81.10;;;19.52;72.65;101126.00;4989181;28;19934;-89
2021/07/19 01:03:39;;;;;;;;;;;19.70;81.10;;;19.49;72.94;101120.91;4989093;28;19934;-89
2021/07/19 01:06:08;;;;;;;;;;;19.80;81.20;;;19.47;72.98;101122.22;4989469;28;19925;-89
2021/07/19 01:08:36;;;;;;;;;;;19.70;81.30;;;19.43;73.20;101123.78;5005212;28;20015;-89
2021/07/19 01:11:06;;;;;;;;;;;19.70;81.50;;;19.39;73.53;101119.78;4990016;28;19936;-88
2021/07/19 01:13:34;;;;;;;;;;;19.60;81.60;;;19.40;73.02;101116.81;4988975;28;19945;-89
2021/07/19 01:16:02;;;;;;;;;;;19.60;81.70;;;19.38;73.39;101121.72;4987775;28;19961;-89
2021/07/19 01:18:29;;;;;;;;;;;19.50;82.00;;;19.28;73.73;101115.84;4989648;28;19933;-89
2021/07/19 01:21:41;;;;;;;;;;;19.50;82.20;;;19.20;73.79;101116.16;4989872;28;19930;-88
2021/07/19 01:24:24;;;;;;;;;;;19.40;82.50;;;19.21;74.05;101112.31;4968079;28;20553;-88
2021/07/19 01:27:33;;;;;;;;;;;19.40;82.50;;;19.16;73.92;101101.97;4988011;28;20406;-88
2021/07/19 01:30:05;;;;;;;;;;;19.30;82.90;;;19.08;74.55;101100.34;4984450;28;19937;-89
2021/07/19 01:32:34;;;;;;;;;;;19.20;83.10;;;19.08;74.45;101105.84;4988398;28;19925;-89
2021/07/19 01:35:03;;;;;;;;;;;19.20;83.10;;;19.02;74.72;101094.88;4988345;28;19929;-89
2021/07/19 01:37:31;;;;;;;;;;;19.20;83.40;;;18.99;74.87;101098.94;4987882;28;20520;-89
2021/07/19 01:40:07;;;;;;;;;;;19.10;83.80;;;18.94;75.04;101101.50;4988457;28;20299;-89
2021/07/19 01:42:35;;;;;;;;;;;19.10;84.10;;;18.90;74.93;101095.59;4988298;28;19930;-89
2021/07/19 01:45:05;;;;;;;;;;;19.00;84.10;;;18.85;75.41;101098.22;4987932;28;20409;-89
2021/07/19 01:47:33;;;;;;;;;;;19.00;84.40;;;18.84;75.27;101095.69;4987925;28;20053;-89
2021/07/19 01:50:01;;;;;;;;;;;18.90;84.40;;;18.80;75.23;101094.41;4988272;28;20036;-88
2021/07/19 01:52:33;;;;;;;;;;;18.90;84.60;;;18.78;75.55;101096.56;4988236;28;20367;-89
2021/07/19 01:55:00;;;;;;;;;;;18.80;84.70;;;18.76;75.26;101088.50;5004588;28;20370;-89
2021/07/19 01:57:28;;;;;;;;;;;18.80;84.70;;;18.73;75.60;101087.03;4987445;28;19932;-89
2021/07/19 01:59:59;;;;;;;;;;;18.80;84.90;;;18.73;75.89;101094.44;4988293;28;20373;-89
2021/07/19 02:02:43;;;;;;;;;;;18.70;85.20;;;18.69;76.12;101099.56;4989509;28;19929;-88
2021/07/19 02:05:18;;;;;;;;;;;18.80;85.40;;;18.66;76.21;101096.44;4987933;28;20004;-89
2021/07/19 02:08:00;;;;;;;;;;;18.70;85.60;;;18.65;76.44;101098.34;4987557;28;20366;-89
2021/07/19 02:10:28;;;;;;;;;;;18.70;85.60;;;18.66;76.20;101100.03;4988147;28;20020;-88
2021/07/19 02:12:59;;;;;;;;;;;18.70;85.40;;;18.64;76.52;101102.16;4987926;28;20012;-89
2021/07/19 02:15:34;;;;;;;;;;;18.70;85.50;;;18.65;76.26;101100.25;5004351;28;20589;-89
2021/07/19 02:18:04;;;;;;;;;;;18.70;85.60;;;18.60;76.71;101100.06;4987361;28;20408;-89
2021/07/19 02:20:32;;;;;;;;;;;18.70;85.90;;;18.58;76.87;101103.03;4987870;28;19988;-89
2021/07/19 02:23:02;;;;;;;;;;;18.60;85.80;;;18.53;76.84;101108.41;5004336;28;19945;-89
2021/07/19 02:25:44;;;;;;;;;;;18.60;85.90;;;18.50;77.05;101114.34;4989047;28;19929;-88
2021/07/19 02:28:17;;;;;;;;;;;18.60;85.90;;;18.50;76.92;101111.59;4991717;28;20012;-88
2021/07/19 02:30:45;;;;;;;;;;;18.60;86.00;;;18.52;76.90;101110.31;4991665;28;19980;-89
2021/07/19 02:33:19;;;;;;;;;;;18.60;86.10;;;18.51;76.93;101102.28;4991657;28;19933;-90
2021/07/19 02:35:49;;;;;;;;;;;18.60;86.30;;;18.50;77.04;101095.06;4991515;28;19925;-89
2021/07/19 02:38:17;;;;;;;;;;;18.60;86.20;;;18.42;77.37;101098.91;4991365;28;19930;-88
2021/07/19 02:40:53;;;;;;;;;;;18.60;86.30;;;18.40;77.83;101100.22;5007720;28;19953;-88
2021/07/19 02:43:22;;;;;;;;;;;18.50;86.60;;;18.42;77.81;101109.94;5007919;28;19980;-88
2021/07/19 02:45:52;;;;;;;;;;;18.50;86.80;;;18.42;77.82;101098.91;4991203;28;19957;-89
2021/07/19 02:48:22;;;;;;;;;;;18.50;86.70;;;18.43;77.76;101108.03;4991166;28;19933;-89
2021/07/19 02:50:56;;;;;;;;;;;18.50;86.70;;;18.47;77.83;101096.34;4991414;28;20394;-88
2021/07/19 02:53:28;;;;;;;;;;;18.60;86.50;;;18.45;77.43;101103.13;4991201;28;20024;-88
2021/07/19 02:55:56;;;;;;;;;;;18.60;86.60;;;18.42;77.58;101104.44;4990889;28;20012;-89
2021/07/19 02:58:24;;;;;;;;;;;18.50;86.70;;;18.39;77.78;101104.03;5005736;28;19983;-88
2021/07/19 03:00:53;;;;;;;;;;;18.50;86.60;;;18.39;77.75;101098.53;5007621;28;19934;-88
2021/07/19 03:05:59;;;;;;;;;;;18.50;86.70;;;18.39;78.07;101099.38;5027777;28;20506;-80
2021/07/19 03:08:27;;;;;;;;;;;18.60;86.70;;;18.40;78.20;101083.69;5031728;28;19948;-81
2021/07/19 03:11:18;;;;;;;;;;;18.60;86.70;;;18.46;77.78;101093.81;5031480;28;19929;-81
2021/07/19 03:13:52;;;;;;;;;;;18.60;86.40;;;18.46;78.10;101110.34;5046648;28;19928;-81
2021/07/19 03:16:21;;;;;;;;;;;18.70;86.70;;;18.47;78.15;101114.81;5029350;28;19968;-81
2021/07/19 03:18:49;;;;;;;;;;;18.70;86.70;;;18.53;77.68;101108.41;5028408;28;20627;-81
2021/07/19 03:21:21;;;;;;;;;;;18.70;86.20;;;18.56;77.35;101105.19;5029821;28;19929;-81
2021/07/19 03:23:58;;;;;;;;;;;18.70;85.90;;;18.57;77.10;101101.38;5030021;28;20002;-81
2021/07/19 03:26:26;;;;;;;;;;;18.70;86.00;;;18.57;77.01;101095.84;5029029;28;19929;-80
2021/07/19 03:28:54;;;;;;;;;;;18.70;85.90;;;18.51;77.52;101100.34;5031609;28;20372;-81
2021/07/19 03:31:23;;;;;;;;;;;18.80;86.20;;;18.54;77.95;101101.81;5029920;28;20353;-81
2021/07/19 03:33:51;;;;;;;;;;;18.80;86.50;;;18.55;77.55;101106.25;5029915;28;19935;-80
2021/07/19 03:36:21;;;;;;;;;;;18.80;85.90;;;18.58;77.43;101104.97;5030714;28;20452;-81
2021/07/19 03:38:49;;;;;;;;;;;18.80;85.70;;;18.60;77.08;101100.94;5028578;28;20375;-81
2021/07/19 03:41:24;;;;;;;;;;;18.80;85.20;;;18.62;76.94;101103.44;5046355;28;19960;-80
2021/07/19 03:43:53;;;;;;;;;;;18.80;85.60;;;18.63;76.96;101105.16;5030837;28;20279;-80
2021/07/19 03:46:22;;;;;;;;;;;18.80;85.50;;;18.65;76.85;101106.59;5045512;28;19979;-81
2021/07/19 03:48:50;;;;;;;;;;;18.90;85.50;;;18.64;76.82;101106.81;5046057;28;20451;-81
2021/07/19 03:51:18;;;;;;;;;;;18.90;85.20;;;18.64;76.81;101107.69;5046018;28;20336;-80
2021/07/19 03:53:50;;;;;;;;;;;18.90;85.30;;;18.66;76.68;101111.06;5045958;28;19925;-81
2021/07/19 03:56:19;;;;;;;;;;;18.90;85.00;;;18.66;76.69;101111.06;5030211;28;20304;-80
2021/07/19 03:58:46;;;;;;;;;;;18.80;85.10;;;18.65;76.44;101108.53;5030834;28;20023;-80
2021/07/19 04:01:16;;;;;;;;;;;18.80;85.20;;;18.63;76.49;101110.66;5029235;28;20413;-80
2021/07/19 04:03:48;;;;;;;;;;;18.80;85.30;;;18.64;76.40;101115.97;5045885;28;19929;-81
2021/07/19 04:06:17;;;;;;;;;;;18.80;85.10;;;18.65;76.34;101120.38;5045170;28;19937;-81
2021/07/19 04:08:55;;;;;;;;;;;18.80;85.10;;;18.65;76.65;101114.03;5045945;28;19929;-81
2021/07/19 04:11:24;;;;;;;;;;;18.80;85.20;;;18.62;76.57;101120.84;5045669;28;19975;-81
2021/07/19 04:13:58;;;;;;;;;;;18.90;85.00;;;18.62;76.75;101119.97;5038169;28;20512;-81
2021/07/19 04:16:27;;;;;;;;;;;18.90;85.10;;;18.61;76.46;101108.13;5029662;28;19933;-80
2021/07/19 04:18:54;;;;;;;;;;;18.90;85.00;;;18.60;76.62;101105.59;5029036;28;19933;-81
2021/07/19 04:21:23;;;;;;;;;;;18.90;85.10;;;18.60;76.69;101106.44;5028962;28;19988;-81
2021/07/19 04:23:56;;;;;;;;;;;18.90;84.70;;;18.61;76.50;101108.13;5028700;28;20015;-81
2021/07/19 04:26:29;;;;;;;;;;;18.80;85.00;;;18.62;76.53;101109.81;5028213;28;19933;-81
2021/07/19 04:29:05;;;;;;;;;;;18.80;84.80;;;18.63;76.29;101105.97;5028673;28;19925;-81
2021/07/19 04:31:39;;;;;;;;;;;18.80;85.20;;;18.58;76.98;101105.81;5028698;28;19929;-81
2021/07/19 04:34:06;;;;;;;;;;;18.80;85.50;;;18.60;77.11;101100.06;5028550;28;19928;-81
2021/07/19 04:36:40;;;;;;;;;;;18.90;85.40;;;18.59;77.80;101109.44;5029556;28;19940;-81
2021/07/19 04:39:12;;;;;;;;;;;19.00;85.70;;;18.57;77.80;101128.94;5028484;28;19925;-81
2021/07/19 04:41:41;;;;;;;;;;;19.00;85.50;;;18.55;78.16;101131.06;5045272;28;19929;-81
2021/07/19 04:44:08;;;;;;;;;;;19.00;85.40;;;18.56;77.78;101127.22;5029893;28;19963;-81
2021/07/19 04:46:35;;;;;;;;;;;19.00;84.80;;;18.59;77.57;101132.31;5029057;28;19925;-81
2021/07/19 04:49:02;;;;;;;;;;;19.10;84.60;;;18.63;77.26;101128.03;5029108;28;20406;-81
2021/07/19 04:51:29;;;;;;;;;;;19.10;84.40;;;18.65;77.30;101123.16;5029595;28;19979;-78
2021/07/19 04:53:56;;;;;;;;;;;19.10;84.50;;;18.63;77.23;101133.56;5029631;28;19929;-78
2021/07/19 04:56:25;;;;;;;;;;;19.10;84.10;;;18.64;77.24;101138.00;5028949;28;19933;-79
2021/07/19 04:58:54;;;;;;;;;;;19.20;83.90;;;18.66;76.80;101133.13;5029623;28;19965;-78
2021/07/19 05:01:22;;;;;;;;;;;19.20;83.40;;;18.67;76.70;101145.81;5029577;28;19952;-78
2021/07/19 05:03:52;;;;;;;;;;;19.20;83.70;;;18.68;76.45;101147.53;5029317;28;20328;-79
2021/07/19 05:06:20;;;;;;;;;;;19.10;83.70;;;18.70;76.52;101145.38;5028940;28;19933;-79
2021/07/19 05:08:49;;;;;;;;;;;19.10;84.20;;;18.70;76.71;101145.38;5029506;28;19980;-78
2021/07/19 05:11:17;;;;;;;;;;;19.10;84.50;;;18.71;76.43;101149.81;5029523;28;19936;-79
2021/07/19 05:13:46;;;;;;;;;;;19.20;83.90;;;18.72;76.61;101151.53;5029172;28;19925;-79
2021/07/19 05:16:14;;;;;;;;;;;19.20;83.80;;;18.73;76.50;101155.13;5028710;28;20027;-78
2021/07/19 05:18:42;;;;;;;;;;;19.20;83.60;;;18.72;76.83;101154.28;5029040;28;20515;-79
2021/07/19 05:21:09;;;;;;;;;;;19.20;83.90;;;18.73;76.30;101153.22;5029285;28;19987;-78
2021/07/19 05:23:38;;;;;;;;;;;19.20;83.40;;;18.74;76.19;101157.66;5027027;28;19951;-79
2021/07/19 05:26:05;;;;;;;;;;;19.20;83.40;;;18.74;76.20;101146.63;5028114;28;20333;-79
2021/07/19 05:28:32;;;;;;;;;;;19.20;83.50;;;18.71;76.21;101147.06;5029243;28;19929;-78
2021/07/19 05:31:01;;;;;;;;;;;19.20;83.30;;;18.73;76.40;101144.09;5028936;28;19940;-79
2021/07/19 05:33:28;;;;;;;;;;;19.30;83.70;;;18.74;76.71;101151.31;5028913;28;20676;-79
2021/07/19 05:35:55;;;;;;;;;;;19.30;83.70;;;18.76;76.62;101154.69;5028319;28;19932;-79
2021/07/19 05:38:23;;;;;;;;;;;19.30;83.60;;;18.75;77.11;101153.84;5029046;28;19968;-80
2021/07/19 05:40:50;;;;;;;;;;;19.40;83.90;;;18.78;76.68;101159.97;5029009;28;19976;-79
2021/07/19 05:43:18;;;;;;;;;;;19.40;82.90;;;18.79;76.19;101150.63;5029079;28;19929;-79
2021/07/19 05:45:45;;;;;;;;;;;19.40;82.50;;;18.81;76.24;101157.66;5028894;28;19929;-79
2021/07/19 05:48:14;;;;;;;;;;;19.50;82.20;;;18.82;75.79;101152.97;5026771;28;19983;-79
2021/07/19 05:50:41;;;;;;;;;;;19.50;82.10;;;18.83;75.74;101161.03;5026977;28;20300;-79
2021/07/19 05:53:10;;;;;;;;;;;19.50;82.20;;;18.85;75.90;101152.50;5028036;28;19937;-78
2021/07/19 05:55:37;;;;;;;;;;;19.50;82.30;;;18.84;75.96;101157.19;5028507;28;19936;-79
2021/07/19 05:58:05;;;;;;;;;;;19.60;82.20;;;18.87;76.35;101156.75;5027952;28;19956;-79
2021/07/19 06:00:32;;;;;;;;;;;19.70;82.10;;;18.88;76.52;101157.59;5026764;28;19929;-80
2021/07/19 06:02:59;;;;;;;;;;;19.90;81.60;;;18.92;76.05;101158.81;5028819;28;19964;-81
2021/07/19 06:05:27;;;;;;;;;;;19.90;81.00;;;18.92;76.17;101159.69;5024430;28;19933;-78
2021/07/19 06:07:54;;;;;;;;;;;20.00;81.00;;;18.92;76.42;101175.38;5028060;28;20020;-78
2021/07/19 06:10:22;;;;;;;;;;;20.00;80.90;;;18.94;76.31;101176.00;5028561;28;20382;-79
2021/07/19 06:12:49;;;;;;;;;;;20.10;80.70;;;18.95;76.17;101173.00;5027322;28;20037;-80
2021/07/19 06:15:20;;;;;;;;;;;20.00;80.20;;;18.95;76.41;101174.94;5028486;28;20394;-78
2021/07/19 06:17:47;;;;;;;;;;;20.00;80.80;;;18.98;75.57;101176.41;5028084;28;19929;-80
2021/07/19 06:20:15;;;;;;;;;;;20.00;80.20;;;18.99;75.71;101173.41;5028653;28;19936;-80
2021/07/19 06:22:45;;;;;;;;;;;20.00;80.70;;;19.01;75.38;101176.78;5028062;28;19929;-80
2021/07/19 06:25:15;;;;;;;;;;;20.00;80.20;;;19.01;75.32;101168.50;5028395;28;19929;-80
2021/07/19 06:27:43;;;;;;;;;;;20.10;80.10;;;19.04;75.45;101176.34;5027489;28;19929;-77
2021/07/19 06:30:12;;;;;;;;;;;20.10;79.90;;;19.05;75.05;101178.03;5028445;28;19969;-78
2021/07/19 06:32:39;;;;;;;;;;;20.20;79.10;;;19.06;75.34;101181.66;5028406;28;19933;-80
2021/07/19 06:35:07;;;;;;;;;;;20.20;79.60;;;19.07;75.10;101173.13;5028451;28;19931;-78
2021/07/19 06:37:35;;;;;;;;;;;20.30;79.00;;;19.10;74.70;101172.69;5020410;28;20317;-82
2021/07/19 06:40:04;;;;;;;;;;;20.40;78.30;;;19.10;74.01;101172.69;5026478;28;20348;-82
2021/07/19 06:42:31;;;;;;;;;;;20.50;77.50;;;19.12;74.47;101169.72;5026942;28;19979;-83
2021/07/19 06:44:58;;;;;;;;;;;20.50;77.90;;;19.14;74.50;101167.56;5028285;28;20020;-83
2021/07/19 06:47:26;;;;;;;;;;;20.50;77.70;;;19.16;74.76;101179.22;5010523;28;19926;-82
2021/07/19 06:49:54;;;;;;;;;;;20.60;77.80;;;19.20;74.51;101185.13;5008523;28;19937;-83
2021/07/19 06:52:21;;;;;;;;;;;20.60;77.10;;;19.21;74.23;101184.06;5008444;28;19926;-80
2021/07/19 06:54:48;;;;;;;;;;;20.60;77.40;;;19.22;74.46;101183.00;5006927;28;19976;-77
2021/07/19 06:57:17;;;;;;;;;;;20.60;77.20;;;19.24;73.83;101175.34;5007801;28;19983;-79
2021/07/19 06:59:44;;;;;;;;;;;20.50;77.50;;;19.27;73.88;101183.16;5008392;28;19930;-80
2021/07/19 07:02:11;;;;;;;;;;;20.60;77.30;;;19.30;74.05;101185.47;5008372;28;19936;-80
2021/07/19 07:04:38;;;;;;;;;;;20.60;77.60;;;19.31;74.08;101189.91;5006855;28;20802;-80
2021/07/19 07:07:05;;;;;;;;;;;20.60;77.50;;;19.31;73.73;101176.13;5007664;28;20476;-80
2021/07/19 07:09:32;;;;;;;;;;;20.60;77.40;;;19.30;74.17;101172.50;5008408;28;20461;-81
2021/07/19 07:11:59;;;;;;;;;;;20.50;78.00;;;19.33;74.51;101173.97;5008249;28;19929;-81
2021/07/19 07:14:28;;;;;;;;;;;20.60;78.70;;;19.34;75.88;101168.25;5011766;28;19976;-81
2021/07/19 07:16:56;;;;;;;;;;;20.60;79.30;;;19.36;74.20;101170.75;5011277;28;19960;-81
2021/07/19 07:19:23;;;;;;;;;;;20.60;77.70;;;19.36;74.70;101173.50;5011758;28;20028;-82
2021/07/19 07:21:50;;;;;;;;;;;20.60;78.40;;;19.37;74.50;101166.94;5011798;28;19944;-79
2021/07/19 07:24:17;;;;;;;;;;;20.60;78.10;;;19.38;74.36;101162.25;5010694;28;20616;-76
2021/07/19 07:26:44;;;;;;;;;;;20.60;78.10;;;19.37;74.00;101166.94;5010964;28;19933;-76
2021/07/19 07:29:11;;;;;;;;;;;20.50;77.50;;;19.39;74.03;101163.94;5011570;28;20016;-76
2021/07/19 07:31:40;;;;;;;;;;;20.60;78.00;;;19.39;74.02;101170.31;5011494;28;19933;-76
2021/07/19 07:34:07;;;;;;;;;;;20.60;78.10;;;19.39;73.58;101173.06;5024186;28;19966;-75
2021/07/19 07:36:34;;;;;;;;;;;20.60;76.60;;;19.37;73.94;101172.44;5030580;28;19951;-75
2021/07/19 07:39:03;;;;;;;;;;;20.50;78.10;;;19.37;73.06;101172.44;5029733;28;20387;-76
2021/07/19 07:41:31;;;;;;;;;;;20.50;77.40;;;19.39;72.78;101178.59;5030916;28;20464;-77
2021/07/19 07:43:59;;;;;;;;;;;20.50;76.60;;;19.38;73.19;101173.28;5031090;28;19998;-79
2021/07/19 07:46:26;;;;;;;;;;;20.40;78.00;;;19.38;72.69;101182.44;5030244;28;19972;-79
2021/07/19 07:48:54;;;;;;;;;;;20.40;76.70;;;19.38;72.38;101178.81;5021735;28;20815;-79
2021/07/19 07:51:21;;;;;;;;;;;20.40;76.70;;;19.37;72.58;101182.66;5021783;28;19971;-79
2021/07/19 07:53:49;;;;;;;;;;;20.30;77.70;;;19.37;73.50;101189.00;5020553;28;20380;-79
2021/07/19 07:56:16;;;;;;;;;;;20.40;78.00;;;19.37;73.41;101191.78;5017617;28;19929;-79
2021/07/19 07:58:43;;;;;;;;;;;20.40;77.80;;;19.37;72.95;101189.00;5019347;28;19929;-80
2021/07/19 08:01:10;;;;;;;;;;;20.40;77.30;;;19.38;72.73;101189.84;5020396;28;19972;-80
2021/07/19 08:03:37;;;;;;;;;;;20.40;77.60;;;19.38;72.80;101190.72;5020913;28;19925;-79
2021/07/19 08:06:05;;;;;;;;;;;20.40;77.60;;;19.39;72.97;101184.09;5018985;28;20401;-79
2021/07/19 08:08:32;;;;;;;;;;;20.40;78.00;;;19.40;72.98;101184.94;5019973;28;19929;-79
2021/07/19 08:10:59;;;;;;;;;;;20.40;78.10;;;19.39;73.56;101181.34;5021244;28;20265;-79
2021/07/19 08:13:27;;;;;;;;;;;20.40;78.70;;;19.39;73.61;101184.09;5019590;28;19937;-79
2021/07/19 08:15:54;;;;;;;;;;;20.40;78.20;;;19.38;73.53;101193.47;5014167;28;19991;-81
2021/07/19 08:18:21;;;;;;;;;;;20.40;78.00;;;19.36;72.87;101187.31;5010809;28;19962;-80
2021/07/19 08:20:48;;;;;;;;;;;20.40;77.30;;;19.36;72.77;101181.78;5010912;28;20012;-79
2021/07/19 08:23:16;;;;;;;;;;;20.40;76.90;;;19.38;72.09;101174.16;5010683;28;20020;-80
2021/07/19 08:25:43;;;;;;;;;;;20.40;76.60;;;19.37;71.12;101189.00;5021630;28;20026;-80
2021/07/19 08:28:11;;;;;;;;;;;20.30;75.60;;;19.37;71.05;101182.66;5033704;28;20459;-80
2021/07/19 08:30:38;;;;;;;;;;;20.20;76.20;;;19.37;71.25;101183.50;5028610;28;19929;-79
2021/07/19 08:33:05;;;;;;;;;;;20.20;76.70;;;19.38;71.40;101184.31;5030170;28;19929;-79
2021/07/19 08:35:32;;;;;;;;;;;20.20;76.70;;;19.37;70.79;101189.00;5046319;28;21165;-79
2021/07/19 08:38:00;;;;;;;;;;;20.10;76.60;;;19.37;70.49;101188.19;5020695;28;19930;-79
2021/07/19 08:40:29;;;;;;;;;;;20.20;75.60;;;19.38;70.42;101189.84;5030866;28;20488;-77
2021/07/19 08:42:57;;;;;;;;;;;20.20;76.30;;;19.36;69.99;101190.06;5033715;28;20027;-77
2021/07/19 08:45:24;;;;;;;;;;;20.20;75.30;;;19.36;70.11;101187.31;5027863;28;19936;-78
2021/07/19 08:47:53;;;;;;;;;;;20.20;75.60;;;19.37;69.79;101190.94;5027962;28;20017;-77
2021/07/19 08:50:24;;;;;;;;;;;20.20;74.90;;;19.37;69.91;101193.69;5039623;28;20451;-77
2021/07/19 08:52:53;;;;;;;;;;;20.20;75.60;;;19.36;69.43;101192.00;5044181;28;19938;-77
2021/07/19 08:55:21;;;;;;;;;;;20.10;75.60;;;19.34;69.54;101187.56;5031484;28;20452;-77
2021/07/19 08:57:50;;;;;;;;;;;20.10;75.70;;;19.32;70.13;101186.94;5038436;28;20351;-77
2021/07/19 09:00:19;;;;;;;;;;;20.10;76.60;;;19.33;70.05;101183.09;5024733;28;19929;-78
2021/07/19 09:02:46;;;;;;;;;;;20.10;76.10;;;19.33;70.31;101177.56;5027919;28;19935;-77
2021/07/19 09:05:14;;;;;;;;;;;20.10;76.10;;;19.35;70.48;101185.63;5025029;28;20425;-76
2021/07/19 09:07:41;;;;;;;;;;;20.20;76.70;;;19.34;71.66;101181.16;5022392;28;19980;-76
2021/07/19 09:10:11;;;;;;;;;;;20.30;77.50;;;19.36;71.73;101187.31;5030364;28;19925;-77
2021/07/19 09:12:40;;;;;;;;;;;20.30;77.20;;;19.35;71.53;101191.16;5043251;28;19929;-78
2021/07/19 09:15:11;;;;;;;;;;;20.40;76.20;;;19.36;71.11;101190.06;5049089;28;19924;-77
2021/07/19 09:17:38;;;;;;;;;;;20.40;76.30;;;19.35;70.07;101191.16;5045838;28;19960;-77
2021/07/19 09:20:09;;;;;;;;;;;20.40;73.60;;;19.36;69.22;101192.00;5015904;28;19964;-78
2021/07/19 09:22:37;;;;;;;;;;;20.40;73.90;;;19.36;69.45;101187.31;5017359;28;19930;-78
2021/07/19 09:25:10;;;;;;;;;;;20.40;74.70;;;19.35;70.45;101191.16;5019787;28;19936;-77
2021/07/19 09:27:40;;;;;;;;;;;20.40;75.60;;;19.37;70.35;101194.53;5019368;28;19929;-77
2021/07/19 09:30:16;;;;;;;;;;;20.50;75.00;;;19.37;71.13;101190.94;5020014;28;19929;-78
2021/07/19 09:35:42;;;;;;;;;;;20.50;76.20;;;19.38;69.77;101179.69;5019548;28;19979;-86
2021/07/19 09:38:15;;;;;;;;;;;20.50;73.40;;;19.39;70.07;101178.59;5022049;28;20011;-93
2021/07/19 09:40:43;;;;;;;;;;;20.50;74.70;;;19.41;70.51;101172.84;5021094;28;20520;-83
2021/07/19 09:43:16;;;;;;;;;;;20.60;75.00;;;19.43;70.35;101178.97;5026310;28;20007;-82
2021/07/19 09:45:45;;;;;;;;;;;20.70;74.10;;;19.44;70.43;101167.72;5025293;28;19932;-82
2021/07/19 09:48:13;;;;;;;;;;;20.70;74.80;;;19.46;70.09;101165.56;5023149;28;19935;-82
2021/07/19 09:50:43;;;;;;;;;;;20.80;73.20;;;19.46;69.26;101160.06;5027491;28;19982;-82
2021/07/19 09:53:11;;;;;;;;;;;20.80;73.10;;;19.50;69.99;101166.78;5019520;28;20659;-82
2021/07/19 09:55:39;;;;;;;;;;;20.90;73.90;;;19.50;69.22;101157.69;5025407;28;20358;-83
2021/07/19 09:58:06;;;;;;;;;;;20.90;72.80;;;19.53;68.50;101154.44;5027970;28;20011;-82
2021/07/19 10:00:34;;;;;;;;;;;21.00;71.70;;;19.56;68.66;101156.75;5026521;28;20301;-82
2021/07/19 10:03:13;;;;;;;;;;;21.10;70.60;;;19.58;68.41;101151.00;5020941;28;20019;-83
2021/07/19 10:05:40;;;;;;;;;;;21.20;71.30;;;19.62;69.58;101153.06;5025169;28;19969;-81
2021/07/19 10:08:07;;;;;;;;;;;21.40;72.30;;;19.67;69.65;101153.25;5027911;28;20476;-83
2021/07/19 10:10:36;;;;;;;;;;;21.50;71.90;;;19.71;69.43;101156.38;5028616;28;19925;-82
2021/07/19 10:13:06;;;;;;;;;;;21.60;70.30;;;19.75;69.28;101151.28;5026890;28;19991;-82
2021/07/19 10:15:33;;;;;;;;;;;21.80;70.20;;;19.79;67.81;101158.03;5028628;28;19929;-82
2021/07/19 10:18:04;;;;;;;;;;;21.80;67.90;;;19.82;67.57;101152.91;5027215;28;19929;-82
2021/07/19 10:20:34;;;;;;;;;;;21.80;68.70;;;19.86;68.31;101143.06;5026859;28;20011;-84
2021/07/19 10:23:02;;;;;;;;;;;21.90;69.90;;;19.89;68.61;101148.13;5026313;28;20422;-84
2021/07/19 10:25:29;;;;;;;;;;;22.00;69.70;;;19.93;67.81;101145.72;5024550;28;20301;-85
2021/07/19 10:27:56;;;;;;;;;;;22.00;68.70;;;19.97;68.40;101135.06;5026353;28;19929;-91
2021/07/19 10:30:30;;;;;;;;;;;22.10;69.10;;;19.98;66.74;101142.28;5027335;28;20023;-93
2021/07/19 10:33:00;;;;;;;;;;;22.10;66.40;;;20.02;67.90;101141.59;5027485;28;19929;-91
2021/07/19 10:35:28;;;;;;;;;;;22.10;68.70;;;20.06;70.17;101130.91;5027220;28;19983;-84
2021/07/19 10:37:59;;;;;;;;;;;22.20;70.60;;;20.05;69.63;101129.25;5015554;28;19933;-92
2021/07/19 10:40:28;;;;;;;;;;;22.30;69.80;;;20.07;69.08;101132.63;5028969;28;20034;-92
2021/07/19 10:43:05;;;;;;;;;;;22.40;68.60;;;20.11;66.56;101133.84;5043842;28;19974;-91
2021/07/19 10:45:40;;;;;;;;;;;22.30;65.50;;;20.15;66.75;101129.53;5022434;28;19933;-93
2021/07/19 10:48:08;;;;;;;;;;;22.30;66.80;;;20.13;66.48;101123.38;5027155;28;19929;-92
2021/07/19 10:50:39;;;;;;;;;;;22.30;66.50;;;20.12;66.50;101132.75;5030429;28;19972;-93
2021/07/19 10:53:19;;;;;;;;;;;22.20;67.00;;;20.14;65.12;101133.34;5031265;28;20704;-93
2021/07/19 10:55:57;;;;;;;;;;;22.00;66.10;;;20.16;65.46;101120.13;5030456;28;19933;-93
2021/07/19 10:58:29;;;;;;;;;;;22.00;67.20;;;20.18;66.68;101129.06;5031037;28;20390;-93
2021/07/19 11:00:59;;;;;;;;;;;22.00;69.10;;;20.16;66.92;101120.13;5029998;28;19929;-93
2021/07/19 11:03:38;;;;;;;;;;;22.00;68.90;;;20.19;67.38;101118.84;5031186;28;20225;-92
2021/07/19 11:06:06;;;;;;;;;;;21.90;69.50;;;20.15;67.25;101118.47;5029754;28;19929;-92
2021/07/19 11:08:34;;;;;;;;;;;21.90;69.60;;;20.15;67.86;101118.47;5030201;28;19940;-92
2021/07/19 11:11:02;;;;;;;;;;;21.90;70.20;;;20.14;68.75;101111.25;5030361;28;20032;-93
2021/07/19 11:13:32;;;;;;;;;;;21.90;70.70;;;20.15;68.77;101121.22;5029767;28;19941;-90
2021/07/19 11:16:00;;;;;;;;;;;21.90;70.90;;;20.15;68.83;101117.63;5029416;28;20027;-89
2021/07/19 11:18:29;;;;;;;;;;;21.90;71.00;;;20.15;68.13;101118.47;5031490;28;19933;-91
2021/07/19 11:20:59;;;;;;;;;;;21.80;70.30;;;20.13;67.20;101120.63;5028390;28;19959;-93
2021/07/19 11:23:29;;;;;;;;;;;21.70;69.30;;;20.12;67.02;101113.41;5030960;28;19929;-93
2021/07/19 11:25:59;;;;;;;;;;;21.60;69.70;;;20.12;67.78;101118.91;5030914;28;19929;-92